Darstellungsparameter: Aktuell verwendete Einstellungen:
Skalierung der Graphiken ... ?
xyx+y,   Skalierungsfaktor:      Skalierung: Modus: x, Faktor: 1
Darstellungszeitraum ... ?
Vom - - bis: - -   Zeitraum: 30.11.2010 - 30.11.2010
Min/Max/Avg-Anzeige ... ?
Zeige MMA aktuell
Zeige MMA Monat
Zeige MMA alles
Zeige --A aktuell
Zeige --A Monat
Zeige --A alles
Keine MMA-Anzeige
MMA:
Minimum Maximum Average (ber die Originaldaten)
MMA-Basis: 30.11.2010 - 30.11.2010
Quicknavigation für Darstellung... ?
Tage:      1T, 2T, 3T, 5T -1T -2T -3T -5T +1T +2T +3T +5T
Wochen: 1W, 2W, 3W -1W -2W -3W +1W +2W +3W
Monate: 1M, 3M, 6M -1M -3M -6M +1M +3M +6M
Jahre:    1J, 3J, 5J, 10J -1J -3J -5J -10J +1J +3J +5J +10J
Nutze für die Darstellung ... ?
Originaldaten oder Mittelwerte auf ...
Stundenbasis Tagesbasis Wochenbasis
Monatsbasis Jahresbasis      Datenbasis: Original-Daten
Darstellen als:
Statistik (Auto) Statistik J:M      Darstellung:
Zur Graphik,    zurück zur Übersicht aller Sensoren.
 
Tabellarische Datenbersicht: ?
 
Sensor: Nr:Datum:Temp:Abs-Feuchte:Windchill:Wind:
Aussen-T/F 1 30-11-2010 00:04:02 -1.6 C 3.86 g/m*3 -1.6 C 0 km/h
2 30-11-2010 00:16:01 -1.7 C 3.83 g/m*3 -1.7 C 0 km/h
3 30-11-2010 00:28:01 -1.8 C 3.8 g/m*3 -1.8 C 0 km/h
4 30-11-2010 00:40:01 -1.9 C 3.78 g/m*3 -1.9 C 0 km/h
5 30-11-2010 00:52:01 -1.9 C 3.78 g/m*3 -1.9 C 0 km/h
6 30-11-2010 01:04:01 -2 C 3.75 g/m*3 -2 C 0 km/h
7 30-11-2010 01:16:01 -2 C 3.75 g/m*3 -2 C 0 km/h
8 30-11-2010 01:28:01 -2 C 3.75 g/m*3 -2 C 0 km/h
9 30-11-2010 01:40:01 -1.9 C 3.78 g/m*3 -1.9 C 0 km/h
10 30-11-2010 01:52:01 -1.9 C 3.78 g/m*3 -1.9 C 0 km/h
11 30-11-2010 02:04:01 -1.8 C 3.8 g/m*3 -1.8 C 0 km/h
12 30-11-2010 02:16:02 -1.7 C 3.83 g/m*3 -1.7 C 0 km/h
13 30-11-2010 02:28:02 -1.7 C 3.83 g/m*3 -1.7 C 0 km/h
14 30-11-2010 02:40:01 -1.6 C 3.86 g/m*3 -1.6 C 0 km/h
15 30-11-2010 02:53:05 -1.6 C 3.86 g/m*3 -1.6 C 0 km/h
16 30-11-2010 03:05:05 -1.6 C 3.86 g/m*3 -1.6 C 0 km/h
17 30-11-2010 03:17:05 -1.6 C 3.86 g/m*3 -1.6 C 0 km/h
18 30-11-2010 03:29:05 -1.6 C 3.86 g/m*3 -1.6 C 0 km/h
19 30-11-2010 03:41:01 -1.8 C 3.8 g/m*3 -1.8 C 0 km/h
20 30-11-2010 03:53:01 -1.9 C 3.74 g/m*3 -1.9 C 0 km/h
21 30-11-2010 04:05:02 -2.1 C 3.68 g/m*3 -2.1 C 0 km/h
22 30-11-2010 04:17:02 -2.3 C 3.63 g/m*3 -2.3 C 0 km/h
23 30-11-2010 04:29:02 -2.4 C 3.61 g/m*3 -2.4 C 0 km/h
24 30-11-2010 04:41:02 -2.5 C 3.58 g/m*3 -2.5 C 0 km/h
25 30-11-2010 04:53:02 -2.5 C 3.58 g/m*3 -2.5 C 0 km/h
Sensor: Nr:Datum:Temp:Abs-Feuchte:Windchill:Wind:
Aussen-T/F 26 30-11-2010 05:05:01 -2.5 C 3.58 g/m*3 -2.5 C 0 km/h
27 30-11-2010 05:17:02 -2.5 C 3.58 g/m*3 -2.5 C 0 km/h
28 30-11-2010 05:29:03 -2.5 C 3.58 g/m*3 -2.5 C 0 km/h
29 30-11-2010 05:41:01 -2.3 C 3.67 g/m*3 -2.3 C 0 km/h
30 30-11-2010 05:53:02 -2.2 C 3.7 g/m*3 -2.2 C 0 km/h
31 30-11-2010 06:05:02 -2.2 C 3.7 g/m*3 -2.2 C 0 km/h
32 30-11-2010 06:17:02 -2.2 C 3.7 g/m*3 -2.2 C 0 km/h
33 30-11-2010 06:29:02 -2.3 C 3.63 g/m*3 -2.3 C 0 km/h
34 30-11-2010 06:41:03 -2.3 C 3.63 g/m*3 -2.3 C 0 km/h
35 30-11-2010 06:53:02 -2.3 C 3.63 g/m*3 -2.3 C 0 km/h
36 30-11-2010 07:05:02 -2.3 C 3.63 g/m*3 -2.3 C 0 km/h
37 30-11-2010 07:17:01 -2.3 C 3.67 g/m*3 -2.3 C 0 km/h
38 30-11-2010 07:29:01 -2.3 C 3.67 g/m*3 -2.3 C 0 km/h
39 30-11-2010 07:41:02 -2.3 C 3.67 g/m*3 -2.3 C 0 km/h
40 30-11-2010 07:53:02 -2.2 C 3.66 g/m*3 -2.2 C 0 km/h
41 30-11-2010 08:05:02 -2.1 C 3.68 g/m*3 -2.1 C 0 km/h
42 30-11-2010 08:17:01 -2.1 C 3.68 g/m*3 -2.1 C 0 km/h
43 30-11-2010 08:29:01 -2.1 C 3.68 g/m*3 -2.1 C 0 km/h
44 30-11-2010 08:41:02 -2.1 C 3.68 g/m*3 -2.1 C 0 km/h
45 30-11-2010 08:53:02 -2 C 3.58 g/m*3 -2 C 0 km/h
46 30-11-2010 09:05:02 -2 C 3.58 g/m*3 -2 C 0 km/h
47 30-11-2010 09:17:02 -2 C 3.58 g/m*3 -2 C 0 km/h
48 30-11-2010 09:29:02 -2 C 3.58 g/m*3 -2 C 0 km/h
49 30-11-2010 09:41:02 -2 C 3.58 g/m*3 -2 C 0 km/h
50 30-11-2010 09:53:01 -2 C 3.58 g/m*3 -2 C 0 km/h
Sensor: Nr:Datum:Temp:Abs-Feuchte:Windchill:Wind:
Aussen-T/F 51 30-11-2010 10:05:02 -2 C 3.58 g/m*3 -2 C 0 km/h
52 30-11-2010 10:17:02 -2 C 3.58 g/m*3 -2 C 0 km/h
53 30-11-2010 10:29:02 -1.7 C 3.49 g/m*3 -1.7 C 0 km/h
54 30-11-2010 10:41:01 -1.8 C 3.42 g/m*3 -1.8 C 0 km/h
55 30-11-2010 10:53:02 -1.6 C 3.47 g/m*3 -1.6 C 0 km/h
56 30-11-2010 11:05:01 -1.6 C 3.47 g/m*3 -1.6 C 0 km/h
57 30-11-2010 11:17:02 -1.6 C 3.47 g/m*3 -1.6 C 0 km/h
58 30-11-2010 11:29:02 -1.6 C 3.47 g/m*3 -1.6 C 0 km/h
59 30-11-2010 11:41:01 -1.3 C 3.41 g/m*3 -1.3 C 0 km/h
60 30-11-2010 11:53:02 -1.4 C 3.39 g/m*3 -1.4 C 0 km/h
61 30-11-2010 12:05:02 -1.3 C 3.32 g/m*3 -1.3 C 0 km/h
62 30-11-2010 12:17:02 -1.2 C 3.34 g/m*3 -1.2 C 0 km/h
63 30-11-2010 12:29:02 -1.3 C 3.23 g/m*3 -1.3 C 0 km/h
64 30-11-2010 12:41:02 -1.3 C 3.28 g/m*3 -1.3 C 0 km/h
65 30-11-2010 12:53:01 -1.4 C 3.21 g/m*3 -1.4 C 0 km/h
66 30-11-2010 13:05:02 -1.2 C 3.25 g/m*3 -1.2 C 0 km/h
67 30-11-2010 13:17:01 -1.1 C 3.28 g/m*3 -1.1 C 0 km/h
68 30-11-2010 13:29:01 -1 C 3.25 g/m*3 -1 C 0 km/h
69 30-11-2010 13:41:02 -1 C 3.25 g/m*3 -1 C 0 km/h
70 30-11-2010 13:53:01 -1.1 C 3.19 g/m*3 -1.1 C 0 km/h
71 30-11-2010 14:05:01 -1.2 C 3.17 g/m*3 -1.2 C 0 km/h
72 30-11-2010 14:17:01 -1.3 C 3.19 g/m*3 -1.3 C 0 km/h
73 30-11-2010 14:29:01 -1.4 C 3.21 g/m*3 -1.4 C 0 km/h
74 30-11-2010 14:41:02 -1.3 C 3.23 g/m*3 -1.3 C 0 km/h
75 30-11-2010 14:53:02 -1.4 C 3.21 g/m*3 -1.4 C 0 km/h
Sensor: Nr:Datum:Temp:Abs-Feuchte:Windchill:Wind:
Aussen-T/F 76 30-11-2010 15:05:02 -1.4 C 3.21 g/m*3 -1.4 C 0 km/h
77 30-11-2010 15:17:02 -1.5 C 3.23 g/m*3 -1.5 C 0 km/h
78 30-11-2010 15:29:02 -1.5 C 3.23 g/m*3 -1.5 C 0 km/h
79 30-11-2010 15:41:02 -1.5 C 3.23 g/m*3 -1.5 C 0 km/h
80 30-11-2010 15:53:01 -1.5 C 3.23 g/m*3 -1.5 C 0 km/h
81 30-11-2010 16:05:02 -1.5 C 3.23 g/m*3 -1.5 C 0 km/h
82 30-11-2010 16:17:01 -1.5 C 3.23 g/m*3 -1.5 C 0 km/h
83 30-11-2010 16:29:01 -1.5 C 3.23 g/m*3 -1.5 C 0 km/h
84 30-11-2010 16:41:01 -1.5 C 3.23 g/m*3 -1.5 C 0 km/h
85 30-11-2010 16:53:01 -1.5 C 3.23 g/m*3 -1.5 C 0 km/h
86 30-11-2010 17:05:01 -1.5 C 3.23 g/m*3 -1.5 C 0 km/h
87 30-11-2010 17:17:01 -2 C 3.25 g/m*3 -2 C 0 km/h
88 30-11-2010 17:29:01 -1.9 C 3.23 g/m*3 -1.9 C 0 km/h
89 30-11-2010 17:41:01 -2.1 C 3.18 g/m*3 -2.1 C 0 km/h
90 30-11-2010 17:53:01 -2.1 C 3.18 g/m*3 -2.1 C 0 km/h
91 30-11-2010 18:05:01 -2.1 C 3.18 g/m*3 -2.1 C 0 km/h
92 30-11-2010 18:17:02 -2.1 C 3.18 g/m*3 -2.1 C 0 km/h
93 30-11-2010 18:29:02 -2.1 C 3.18 g/m*3 -2.1 C 0 km/h
94 30-11-2010 18:41:01 -2.1 C 3.18 g/m*3 -2.1 C 0 km/h
95 30-11-2010 18:53:03 -2.1 C 3.18 g/m*3 -2.1 C 0 km/h
96 30-11-2010 19:05:02 -2.1 C 3.18 g/m*3 -2.1 C 0 km/h
97 30-11-2010 19:17:02 -2.1 C 3.18 g/m*3 -2.1 C 0 km/h
98 30-11-2010 19:29:02 -2.1 C 3.18 g/m*3 -2.1 C 0 km/h
99 30-11-2010 19:41:02 -2.1 C 3.18 g/m*3 -2.1 C 0 km/h
100 30-11-2010 19:53:02 -2.1 C 3.14 g/m*3 -2.1 C 0 km/h
Sensor: Nr:Datum:Temp:Abs-Feuchte:Windchill:Wind:
Aussen-T/F 101 30-11-2010 20:05:02 -2.1 C 3.14 g/m*3 -2.1 C 0 km/h
102 30-11-2010 20:17:02 -2.2 C 3.12 g/m*3 -2.2 C 0 km/h
103 30-11-2010 20:29:02 -2.3 C 3.1 g/m*3 -2.3 C 0 km/h
104 30-11-2010 20:41:02 -2.4 C 3.07 g/m*3 -2.4 C 0 km/h
105 30-11-2010 20:53:02 -2.3 C 3.14 g/m*3 -2.3 C 0 km/h
106 30-11-2010 21:05:01 -2.4 C 3.07 g/m*3 -2.4 C 0 km/h
107 30-11-2010 21:17:01 -2.4 C 3.07 g/m*3 -2.4 C 0 km/h
108 30-11-2010 21:29:01 -2.4 C 3.07 g/m*3 -2.4 C 0 km/h
109 30-11-2010 21:41:02 -2.4 C 3.03 g/m*3 -2.4 C 0 km/h
110 30-11-2010 21:53:02 -2.4 C 2.99 g/m*3 -2.4 C 0 km/h
111 30-11-2010 22:05:02 -2.5 C 2.97 g/m*3 -2.5 C 0 km/h
112 30-11-2010 22:18:02 -2.6 C 2.95 g/m*3 -2.6 C 0 km/h
113 30-11-2010 22:30:02 -2.6 C 2.95 g/m*3 -2.6 C 0 km/h
114 30-11-2010 22:42:02 -2.6 C 2.91 g/m*3 -2.6 C 0 km/h
115 30-11-2010 22:54:02 -2.6 C 2.91 g/m*3 -2.6 C 0 km/h
116 30-11-2010 23:06:03 -2.6 C 2.87 g/m*3 -2.6 C 0 km/h
117 30-11-2010 23:18:03 -2.7 C 2.85 g/m*3 -2.7 C 0 km/h
118 30-11-2010 23:30:03 -2.8 C 2.83 g/m*3 -2.8 C 0 km/h
119 30-11-2010 23:42:03 -2.8 C 2.83 g/m*3 -2.8 C 0 km/h
120 30-11-2010 23:54:03 -2.9 C 2.77 g/m*3 -2.9 C 0 km/h

Legende:
   Min
   Max


Maximal/Minimal-Werte vom 30.11.2010 - 30.11.2010

Sensor Min Max Avg
Temp
(Aussen-T/F)
-2.9 °C
30-11-2010  23:54:03
-1 °C
30-11-2010  13:29:01
-1.94 °C
Abs-Feuchte
(Aussen-T/F)
2.77 g/m*3
30-11-2010  23:54:03
3.86 g/m*3
30-11-2010  00:04:02
3.37 g/m*3
Windchill
(Aussen-T/F)
-2.9 C
30-11-2010  23:54:03
-1 C
30-11-2010  13:29:01
-1.93 C

Die Daten stammen von einer Davis Vantage Pro 2 Wetter-Station und werden unter Linux mit der Software wview2wettercgi und aufbereitet. Alle Angaben erfolgen ohne Gewähr für ihre Vollständigkeit oder Richtigkeit.
Kontakt: Rainer Krienke krienke@uni-koblenz.de . Meine Webseiten an der Uni Koblenz oder privat.
Version: $Revision: 0.78 $